Time;durP1;ratioP1;P1;durP2;ratioP2;P2;SDS_P1;SDS_P2;PMS_P1;PMS_P2;Temp;Humidity;BMP_temperature;BMP_pressure;BME280_temperature;BME280_humidity;BME280_pressure;Samples;Min_cycle;Max_cycle;Signal;HPM_P1;HPM_P2
2024/02/03 00:00:56;;;;;;;8.60;6.25;;;;;;;;;;5009017;28;20095;-88
2024/02/03 00:03:23;;;;;;;7.75;5.78;;;;;;;;;;5025607;28;20049;-87
2024/02/03 00:05:51;;;;;;;8.20;5.57;;;;;;;;;;5005995;28;20050;-89
2024/02/03 00:08:18;;;;;;;9.20;5.72;;;;;;;;;;5002018;28;20417;-89
2024/02/03 00:10:45;;;;;;;7.10;5.47;;;;;;;;;;5005829;28;20046;-89
2024/02/03 00:13:13;;;;;;;7.10;5.90;;;;;;;;;;5020745;28;20103;-88
2024/02/03 00:15:40;;;;;;;7.35;5.25;;;;;;;;;;5021709;28;20054;-88
2024/02/03 00:18:07;;;;;;;5.75;5.25;;;;;;;;;;5011779;28;20059;-88
2024/02/03 00:20:35;;;;;;;7.60;5.47;;;;;;;;;;5023004;28;20042;-88
2024/02/03 00:23:02;;;;;;;8.25;5.35;;;;;;;;;;5005365;28;20046;-89
2024/02/03 00:25:29;;;;;;;5.82;5.00;;;;;;;;;;5006718;28;20069;-89
2024/02/03 00:27:56;;;;;;;8.77;5.25;;;;;;;;;;5013394;28;20050;-89
2024/02/03 00:30:24;;;;;;;7.13;4.93;;;;;;;;;;5002652;28;20058;-88
2024/02/03 00:32:51;;;;;;;6.90;4.88;;;;;;;;;;5024823;28;20076;-89
2024/02/03 00:35:18;;;;;;;6.97;4.50;;;;;;;;;;5004949;28;20061;-88
2024/02/03 00:37:46;;;;;;;8.32;4.75;;;;;;;;;;5021496;28;20049;-89
2024/02/03 00:40:13;;;;;;;5.60;4.57;;;;;;;;;;5005226;28;20049;-88
2024/02/03 00:42:42;;;;;;;6.60;4.85;;;;;;;;;;5002127;28;20054;-88
2024/02/03 00:45:10;;;;;;;7.28;5.78;;;;;;;;;;5001723;28;20593;-88
2024/02/03 00:47:37;;;;;;;6.85;5.25;;;;;;;;;;5004274;28;20057;-89
2024/02/03 00:50:05;;;;;;;6.80;4.18;;;;;;;;;;5005167;28;20113;-89
2024/02/03 00:52:32;;;;;;;5.88;4.70;;;;;;;;;;5003270;28;20103;-89
2024/02/03 00:54:59;;;;;;;6.10;4.95;;;;;;;;;;5001490;28;20050;-88
2024/02/03 00:57:26;;;;;;;5.82;4.68;;;;;;;;;;5001153;28;20449;-88
2024/02/03 00:59:53;;;;;;;8.63;5.10;;;;;;;;;;5006640;28;20053;-89
2024/02/03 01:02:20;;;;;;;6.80;5.13;;;;;;;;;;5031094;28;20026;-89
2024/02/03 01:04:48;;;;;;;6.93;4.70;;;;;;;;;;5011928;28;20046;-88
2024/02/03 01:07:16;;;;;;;6.72;4.57;;;;;;;;;;5001436;28;20459;-89
2024/02/03 01:09:43;;;;;;;9.25;4.97;;;;;;;;;;5009188;28;20054;-88
2024/02/03 01:12:10;;;;;;;8.60;5.80;;;;;;;;;;5001226;28;20085;-89
2024/02/03 01:14:38;;;;;;;6.05;5.43;;;;;;;;;;5001372;28;20065;-89
2024/02/03 01:17:05;;;;;;;6.90;4.82;;;;;;;;;;5004109;28;20046;-89
2024/02/03 01:19:32;;;;;;;5.90;5.10;;;;;;;;;;5009362;28;20116;-89
2024/02/03 01:21:59;;;;;;;5.18;4.68;;;;;;;;;;5006752;28;20403;-89
2024/02/03 01:24:27;;;;;;;6.93;5.93;;;;;;;;;;5020571;28;20058;-89
2024/02/03 01:26:54;;;;;;;5.97;4.70;;;;;;;;;;5005980;28;20060;-89
2024/02/03 01:29:21;;;;;;;7.18;5.57;;;;;;;;;;5004339;28;20496;-88
2024/02/03 01:31:48;;;;;;;6.82;4.93;;;;;;;;;;5001226;28;20077;-89
2024/02/03 01:34:16;;;;;;;7.57;5.90;;;;;;;;;;4997155;28;20458;-89
2024/02/03 01:36:43;;;;;;;7.53;5.53;;;;;;;;;;5017338;28;20108;-88
2024/02/03 01:39:10;;;;;;;7.63;5.93;;;;;;;;;;5001035;28;20046;-88
2024/02/03 01:41:38;;;;;;;8.05;5.28;;;;;;;;;;5003371;28;20419;-89
2024/02/03 01:44:05;;;;;;;7.35;5.40;;;;;;;;;;5004442;28;20085;-88
2024/02/03 01:46:32;;;;;;;7.28;5.30;;;;;;;;;;5002739;28;20108;-88
2024/02/03 01:48:59;;;;;;;7.68;5.95;;;;;;;;;;5000429;28;20046;-89
2024/02/03 01:51:27;;;;;;;10.32;5.93;;;;;;;;;;5006971;28;20536;-88
2024/02/03 01:53:55;;;;;;;6.90;5.72;;;;;;;;;;5004802;28;20141;-88
2024/02/03 01:56:24;;;;;;;7.60;5.97;;;;;;;;;;5005215;28;20419;-88
2024/02/03 01:58:52;;;;;;;6.38;5.47;;;;;;;;;;5008338;28;20041;-88
2024/02/03 02:01:19;;;;;;;7.00;5.35;;;;;;;;;;5024464;28;20433;-88
2024/02/03 02:03:46;;;;;;;6.35;5.50;;;;;;;;;;5012514;28;20073;-88
2024/02/03 02:06:14;;;;;;;6.15;5.18;;;;;;;;;;5004342;28;20054;-89
2024/02/03 02:08:41;;;;;;;9.35;5.95;;;;;;;;;;5006617;28;20061;-89
2024/02/03 02:11:08;;;;;;;5.97;5.07;;;;;;;;;;5007807;28;20054;-89
2024/02/03 02:13:36;;;;;;;6.03;5.43;;;;;;;;;;5005956;28;20045;-89
2024/02/03 02:16:03;;;;;;;13.23;6.35;;;;;;;;;;5008777;28;20069;-88
2024/02/03 02:18:30;;;;;;;7.15;5.65;;;;;;;;;;5021364;28;20050;-89
2024/02/03 02:20:58;;;;;;;6.57;5.28;;;;;;;;;;5008454;28;20062;-89
2024/02/03 02:23:25;;;;;;;7.63;5.32;;;;;;;;;;5015828;28;20080;-89
2024/02/03 02:25:52;;;;;;;7.63;5.32;;;;;;;;;;5007655;28;20058;-89
2024/02/03 02:28:19;;;;;;;6.70;5.40;;;;;;;;;;5007674;28;20046;-89
2024/02/03 02:30:46;;;;;;;6.32;4.85;;;;;;;;;;5004852;28;20085;-87
2024/02/03 02:33:14;;;;;;;7.72;4.95;;;;;;;;;;5003473;28;20046;-89
2024/02/03 02:35:43;;;;;;;5.57;4.60;;;;;;;;;;5006439;28;20053;-89
2024/02/03 02:38:10;;;;;;;5.60;4.15;;;;;;;;;;5007456;28;20124;-89
2024/02/03 02:40:38;;;;;;;6.03;4.70;;;;;;;;;;5005087;28;20483;-89
2024/02/03 02:43:05;;;;;;;5.15;4.50;;;;;;;;;;5006664;28;20050;-89
2024/02/03 02:45:32;;;;;;;5.07;4.55;;;;;;;;;;5005508;28;20061;-89
2024/02/03 02:48:00;;;;;;;5.45;4.30;;;;;;;;;;5007229;28;20058;-89
2024/02/03 02:50:27;;;;;;;4.07;3.67;;;;;;;;;;5006868;28;20064;-88
2024/02/03 02:52:54;;;;;;;5.95;3.80;;;;;;;;;;5007126;28;20093;-88
2024/02/03 02:55:22;;;;;;;4.20;3.83;;;;;;;;;;5006654;28;20070;-89
2024/02/03 02:57:49;;;;;;;4.20;3.70;;;;;;;;;;5003555;28;20113;-89
2024/02/03 03:00:17;;;;;;;3.80;3.50;;;;;;;;;;5002177;28;20054;-89
2024/02/03 03:02:45;;;;;;;7.03;3.65;;;;;;;;;;5003353;28;20137;-89
2024/02/03 03:05:12;;;;;;;4.15;3.35;;;;;;;;;;5003691;28;20069;-89
2024/02/03 03:07:40;;;;;;;4.25;3.08;;;;;;;;;;5005986;28;20050;-89
2024/02/03 03:10:08;;;;;;;3.72;3.40;;;;;;;;;;5006721;28;20469;-89
2024/02/03 03:12:35;;;;;;;3.60;3.30;;;;;;;;;;5011962;28;20046;-89
2024/02/03 03:15:03;;;;;;;4.10;3.22;;;;;;;;;;4997432;28;20396;-88
2024/02/03 03:17:33;;;;;;;3.42;3.15;;;;;;;;;;5003159;28;20112;-89
2024/02/03 03:20:00;;;;;;;3.40;2.95;;;;;;;;;;5001202;28;20050;-89
2024/02/03 03:22:28;;;;;;;3.20;2.90;;;;;;;;;;5012250;28;20420;-89
2024/02/03 03:24:55;;;;;;;3.78;3.40;;;;;;;;;;5006541;28;20115;-89
2024/02/03 03:27:22;;;;;;;3.10;2.90;;;;;;;;;;5006336;28;20104;-89
2024/02/03 03:29:50;;;;;;;2.95;2.75;;;;;;;;;;5005881;28;20043;-89
2024/02/03 03:32:17;;;;;;;3.03;2.83;;;;;;;;;;5019847;28;20082;-89
2024/02/03 03:34:44;;;;;;;3.25;2.95;;;;;;;;;;5006791;28;20057;-89
2024/02/03 03:37:12;;;;;;;2.55;2.35;;;;;;;;;;5006147;28;20064;-89
2024/02/03 03:39:39;;;;;;;3.15;2.72;;;;;;;;;;5006087;28;20549;-89
2024/02/03 03:42:06;;;;;;;2.67;2.47;;;;;;;;;;5022225;28;20054;-89
2024/02/03 03:44:33;;;;;;;2.75;2.55;;;;;;;;;;5020659;28;20056;-89
2024/02/03 03:47:01;;;;;;;3.47;2.70;;;;;;;;;;5002645;28;20054;-87
2024/02/03 03:49:32;;;;;;;2.20;2.03;;;;;;;;;;5003920;28;20046;-89
2024/02/03 03:52:00;;;;;;;2.38;2.20;;;;;;;;;;5005805;28;20053;-89
2024/02/03 03:54:28;;;;;;;2.42;2.20;;;;;;;;;;5013888;28;20054;-88
2024/02/03 03:56:55;;;;;;;2.10;2.00;;;;;;;;;;5010476;28;20058;-89
2024/02/03 03:59:22;;;;;;;2.00;1.90;;;;;;;;;;5003111;28;20101;-88
2024/02/03 04:01:50;;;;;;;2.17;2.08;;;;;;;;;;5006198;28;20057;-89
2024/02/03 04:04:17;;;;;;;2.90;2.58;;;;;;;;;;5005761;28;20560;-89
2024/02/03 04:06:45;;;;;;;2.15;1.98;;;;;;;;;;5002034;28;20060;-89
2024/02/03 04:09:13;;;;;;;1.95;1.58;;;;;;;;;;5001941;28;20062;-88
2024/02/03 04:11:41;;;;;;;1.60;1.50;;;;;;;;;;5001768;28;20517;-88
2024/02/03 04:14:08;;;;;;;1.77;1.67;;;;;;;;;;5002047;28;20053;-88
2024/02/03 04:16:36;;;;;;;1.58;1.48;;;;;;;;;;5003045;28;20061;-89
2024/02/03 04:19:03;;;;;;;1.45;1.45;;;;;;;;;;5021863;28;20097;-89
2024/02/03 04:21:31;;;;;;;1.40;1.40;;;;;;;;;;5003621;28;20053;-88
2024/02/03 04:23:59;;;;;;;1.83;1.73;;;;;;;;;;5001923;28;20054;-88
2024/02/03 04:26:27;;;;;;;0.98;0.98;;;;;;;;;;5002735;28;20054;-89
2024/02/03 04:28:54;;;;;;;1.10;1.10;;;;;;;;;;5005396;28;20525;-89
2024/02/03 04:31:21;;;;;;;1.10;1.00;;;;;;;;;;5004776;28;20100;-89
2024/02/03 04:33:48;;;;;;;1.25;1.20;;;;;;;;;;5021181;28;20058;-89
2024/02/03 04:36:18;;;;;;;1.27;1.27;;;;;;;;;;5004886;28;20060;-89
2024/02/03 04:38:46;;;;;;;0.85;0.82;;;;;;;;;;5005224;28;20042;-89
2024/02/03 04:41:21;;;;;;;0.95;0.95;;;;;;;;;;5005323;28;20057;-89
2024/02/03 04:43:48;;;;;;;1.00;1.00;;;;;;;;;;5016160;28;20053;-89
2024/02/03 04:46:15;;;;;;;1.80;0.80;;;;;;;;;;5010947;28;20046;-89
2024/02/03 04:48:43;;;;;;;0.90;0.90;;;;;;;;;;5021486;28;20077;-88
2024/02/03 04:51:10;;;;;;;0.80;0.80;;;;;;;;;;5021129;28;20065;-89
2024/02/03 04:53:39;;;;;;;0.85;0.75;;;;;;;;;;5004612;28;20566;-89
2024/02/03 04:56:07;;;;;;;0.73;0.73;;;;;;;;;;5020967;28;20046;-89
2024/02/03 04:58:34;;;;;;;0.60;0.60;;;;;;;;;;5009549;28;20046;-89
2024/02/03 05:01:02;;;;;;;0.60;0.60;;;;;;;;;;5001053;28;20181;-89
2024/02/03 05:03:31;;;;;;;0.77;0.77;;;;;;;;;;5003548;28;20149;-89
2024/02/03 05:06:05;;;;;;;0.57;0.57;;;;;;;;;;5004760;28;20069;-88
2024/02/03 05:08:34;;;;;;;0.90;0.90;;;;;;;;;;5004574;28;20100;-89
2024/02/03 05:11:02;;;;;;;1.27;0.73;;;;;;;;;;5020802;28;20053;-89
2024/02/03 05:13:29;;;;;;;1.08;1.08;;;;;;;;;;5004335;28;20112;-89
2024/02/03 05:15:57;;;;;;;1.95;1.23;;;;;;;;;;5013677;28;20049;-88
2024/02/03 05:18:24;;;;;;;1.85;1.60;;;;;;;;;;5003945;28;20060;-89
2024/02/03 05:20:51;;;;;;;2.53;2.33;;;;;;;;;;5001055;28;20057;-89
2024/02/03 05:23:19;;;;;;;2.97;2.22;;;;;;;;;;5000146;28;20490;-88
2024/02/03 05:25:46;;;;;;;1.20;1.10;;;;;;;;;;5001319;28;20046;-88
2024/02/03 05:28:18;;;;;;;0.80;0.73;;;;;;;;;;4996900;28;20549;-89
2024/02/03 05:30:45;;;;;;;0.50;0.50;;;;;;;;;;5004366;28;20046;-88
2024/02/03 05:33:13;;;;;;;0.40;0.40;;;;;;;;;;5004374;28;20046;-89
2024/02/03 05:35:40;;;;;;;0.40;0.40;;;;;;;;;;5001496;28;20491;-89
2024/02/03 05:38:08;;;;;;;1.08;0.77;;;;;;;;;;5001102;28;20054;-88
2024/02/03 05:40:35;;;;;;;0.40;0.40;;;;;;;;;;5002748;28;20132;-89
2024/02/03 05:43:02;;;;;;;0.30;0.30;;;;;;;;;;5002396;28;20050;-88
2024/02/03 05:45:30;;;;;;;0.22;0.22;;;;;;;;;;5002488;28;20058;-89
2024/02/03 05:47:57;;;;;;;0.73;0.50;;;;;;;;;;5000626;28;20050;-88
2024/02/03 05:50:24;;;;;;;0.30;0.30;;;;;;;;;;5001195;28;20173;-88
2024/02/03 05:52:52;;;;;;;0.47;0.30;;;;;;;;;;5009098;28;20050;-89
2024/02/03 05:55:19;;;;;;;1.10;0.30;;;;;;;;;;5001558;28;20042;-89
2024/02/03 05:57:53;;;;;;;1.25;0.35;;;;;;;;;;5009024;28;20038;-88
2024/02/03 06:00:21;;;;;;;0.40;0.40;;;;;;;;;;5012904;28;20387;-89
2024/02/03 06:02:48;;;;;;;0.73;0.40;;;;;;;;;;5001997;28;20054;-88
2024/02/03 06:05:16;;;;;;;0.20;0.20;;;;;;;;;;5000731;28;20055;-89
2024/02/03 06:07:43;;;;;;;0.20;0.20;;;;;;;;;;5002285;28;20042;-87
2024/02/03 06:10:11;;;;;;;0.47;0.20;;;;;;;;;;4999764;28;20054;-88
2024/02/03 06:12:38;;;;;;;0.20;0.20;;;;;;;;;;5002729;28;20097;-89
2024/02/03 06:15:06;;;;;;;0.40;0.40;;;;;;;;;;5003772;28;20046;-88
2024/02/03 06:17:33;;;;;;;0.20;0.20;;;;;;;;;;5003665;28;20050;-88
2024/02/03 06:20:01;;;;;;;0.30;0.20;;;;;;;;;;5004062;28;20042;-88
2024/02/03 06:22:28;;;;;;;0.55;0.22;;;;;;;;;;5002477;28;20506;-89
2024/02/03 06:24:56;;;;;;;0.30;0.30;;;;;;;;;;5001932;28;20097;-88
2024/02/03 06:27:23;;;;;;;0.20;0.20;;;;;;;;;;4997349;28;20054;-88
2024/02/03 06:29:50;;;;;;;0.30;0.30;;;;;;;;;;4997380;28;20209;-88
2024/02/03 06:32:18;;;;;;;0.50;0.30;;;;;;;;;;5003652;28;20131;-89
2024/02/03 06:34:45;;;;;;;0.20;0.13;;;;;;;;;;5005204;28;20060;-89
2024/02/03 06:37:13;;;;;;;0.30;0.30;;;;;;;;;;5016331;28;20049;-89
2024/02/03 06:39:40;;;;;;;0.28;0.28;;;;;;;;;;4995488;28;20537;-87
2024/02/03 06:42:08;;;;;;;0.30;0.30;;;;;;;;;;5003721;28;20075;-88
2024/02/03 06:44:36;;;;;;;0.25;0.25;;;;;;;;;;5004974;28;20058;-87
2024/02/03 06:47:03;;;;;;;0.30;0.30;;;;;;;;;;5007885;28;20041;-89
2024/02/03 06:49:30;;;;;;;0.80;0.30;;;;;;;;;;5023511;28;20049;-89
2024/02/03 06:51:58;;;;;;;0.30;0.30;;;;;;;;;;5011704;28;20050;-88
2024/02/03 06:54:26;;;;;;;0.20;0.20;;;;;;;;;;5000900;28;20046;-89
2024/02/03 06:56:53;;;;;;;0.30;0.30;;;;;;;;;;4996495;28;20053;-88
2024/02/03 06:59:20;;;;;;;0.43;0.43;;;;;;;;;;5016508;28;20046;-88
2024/02/03 07:01:50;;;;;;;0.20;0.20;;;;;;;;;;5007052;28;20045;-88
2024/02/03 07:04:17;;;;;;;0.95;0.50;;;;;;;;;;5006648;28;20060;-87
2024/02/03 07:06:45;;;;;;;0.45;0.30;;;;;;;;;;5003170;28;20133;-89
2024/02/03 07:09:13;;;;;;;0.20;0.20;;;;;;;;;;5007125;28;20050;-88
2024/02/03 07:11:40;;;;;;;1.35;0.20;;;;;;;;;;5007318;28;20825;-88
2024/02/03 07:14:26;;;;;;;0.22;0.22;;;;;;;;;;5019871;28;20050;-88
2024/02/03 07:16:54;;;;;;;0.28;0.28;;;;;;;;;;5007101;28;20057;-86
2024/02/03 07:19:21;;;;;;;0.40;0.40;;;;;;;;;;5006279;28;20391;-89
2024/02/03 07:21:49;;;;;;;0.30;0.30;;;;;;;;;;5003095;28;20137;-89
2024/02/03 07:24:16;;;;;;;0.50;0.50;;;;;;;;;;5002918;28;20058;-89
2024/02/03 07:26:44;;;;;;;1.65;0.45;;;;;;;;;;5006256;28;20486;-88
2024/02/03 07:29:11;;;;;;;0.40;0.40;;;;;;;;;;5006528;28;20049;-88
2024/02/03 07:31:38;;;;;;;0.50;0.50;;;;;;;;;;5003934;28;20057;-89
2024/02/03 07:34:05;;;;;;;0.30;0.30;;;;;;;;;;5008713;28;20053;-89
2024/02/03 07:36:33;;;;;;;0.88;0.40;;;;;;;;;;5006299;28;20054;-88
2024/02/03 07:39:03;;;;;;;0.85;0.40;;;;;;;;;;5006229;28;20052;-88
2024/02/03 07:41:31;;;;;;;0.30;0.30;;;;;;;;;;5012516;28;20108;-88
2024/02/03 07:44:01;;;;;;;0.35;0.35;;;;;;;;;;5006225;28;20491;-89
2024/02/03 07:46:29;;;;;;;0.47;0.40;;;;;;;;;;5006715;28;20053;-89
2024/02/03 07:48:56;;;;;;;1.40;0.30;;;;;;;;;;5003124;28;20105;-89
2024/02/03 07:51:24;;;;;;;1.10;0.60;;;;;;;;;;5007721;28;20049;-88
2024/02/03 07:53:51;;;;;;;0.50;0.50;;;;;;;;;;5002958;28;20411;-90
2024/02/03 07:56:19;;;;;;;0.40;0.40;;;;;;;;;;5002537;28;20503;-88
2024/02/03 07:58:46;;;;;;;0.45;0.45;;;;;;;;;;5002588;28;20057;-88
2024/02/03 08:01:13;;;;;;;0.40;0.40;;;;;;;;;;5006500;28;20088;-88
2024/02/03 08:03:40;;;;;;;0.40;0.40;;;;;;;;;;5005329;28;20633;-88
2024/02/03 08:06:08;;;;;;;0.40;0.40;;;;;;;;;;5021989;28;20050;-88
2024/02/03 08:08:35;;;;;;;0.88;0.85;;;;;;;;;;5003739;28;20137;-88
2024/02/03 08:11:03;;;;;;;0.50;0.50;;;;;;;;;;5007977;28;20128;-89
2024/02/03 08:13:30;;;;;;;1.90;1.80;;;;;;;;;;5020624;28;20054;-89
2024/02/03 08:15:57;;;;;;;0.50;0.50;;;;;;;;;;5001911;28;20050;-89
2024/02/03 08:18:25;;;;;;;0.80;0.80;;;;;;;;;;5002139;28;20092;-88
2024/02/03 08:20:53;;;;;;;0.63;0.57;;;;;;;;;;5002386;28;20077;-88
2024/02/03 08:23:20;;;;;;;0.40;0.40;;;;;;;;;;5002701;28;20054;-88
2024/02/03 08:25:48;;;;;;;0.40;0.40;;;;;;;;;;5009157;28;20050;-88
2024/02/03 08:28:15;;;;;;;0.40;0.40;;;;;;;;;;5018992;28;20051;-89
2024/02/03 08:30:43;;;;;;;0.50;0.38;;;;;;;;;;5015354;28;20061;-89
2024/02/03 08:33:11;;;;;;;0.30;0.30;;;;;;;;;;5021187;28;20053;-88
2024/02/03 08:35:40;;;;;;;0.22;0.22;;;;;;;;;;5001968;28;20718;-89
2024/02/03 08:38:08;;;;;;;0.40;0.30;;;;;;;;;;5001333;28;20491;-88
2024/02/03 08:40:35;;;;;;;0.30;0.30;;;;;;;;;;5003536;28;20101;-87
2024/02/03 08:43:02;;;;;;;1.30;0.30;;;;;;;;;;5005075;28;20112;-87
2024/02/03 08:45:29;;;;;;;0.38;0.30;;;;;;;;;;5003659;28;20062;-88
2024/02/03 08:47:57;;;;;;;0.52;0.40;;;;;;;;;;5001703;28;20127;-88
2024/02/03 08:50:24;;;;;;;0.38;0.38;;;;;;;;;;5001794;28;20057;-87
2024/02/03 08:52:51;;;;;;;0.95;0.40;;;;;;;;;;5000980;28;20051;-87
2024/02/03 08:55:18;;;;;;;0.30;0.30;;;;;;;;;;5001295;28;20132;-89
2024/02/03 08:57:46;;;;;;;0.20;0.20;;;;;;;;;;5004798;28;20050;-88
2024/02/03 09:00:13;;;;;;;0.22;0.22;;;;;;;;;;5020916;28;20050;-88
2024/02/03 09:02:41;;;;;;;0.20;0.20;;;;;;;;;;5001874;28;20105;-87
2024/02/03 09:05:08;;;;;;;0.20;0.20;;;;;;;;;;5001421;28;20137;-88
2024/02/03 09:07:36;;;;;;;0.73;0.40;;;;;;;;;;5000950;28;20058;-87
2024/02/03 09:10:03;;;;;;;2.55;0.35;;;;;;;;;;5001439;28;20491;-87
2024/02/03 09:12:31;;;;;;;0.57;0.40;;;;;;;;;;5002796;28;20400;-89
2024/02/03 09:14:59;;;;;;;0.70;0.20;;;;;;;;;;5004064;28;20549;-89
2024/02/03 09:17:26;;;;;;;0.30;0.30;;;;;;;;;;5003453;28;20046;-88
2024/02/03 09:19:53;;;;;;;0.30;0.30;;;;;;;;;;5000984;28;20057;-88
2024/02/03 09:22:20;;;;;;;0.40;0.40;;;;;;;;;;5006496;28;20505;-92
2024/02/03 09:24:48;;;;;;;0.17;0.17;;;;;;;;;;5001829;28;20116;-88
2024/02/03 09:27:15;;;;;;;0.30;0.30;;;;;;;;;;4992032;28;20054;-89
2024/02/03 09:29:43;;;;;;;0.25;0.25;;;;;;;;;;5001143;28;20050;-90
2024/02/03 09:32:10;;;;;;;0.20;0.20;;;;;;;;;;5001830;28;20178;-89
2024/02/03 09:34:38;;;;;;;0.30;0.30;;;;;;;;;;5008023;28;20097;-89
2024/02/03 09:37:05;;;;;;;0.40;0.40;;;;;;;;;;5001831;28;20085;-88
2024/02/03 09:39:37;;;;;;;0.80;0.20;;;;;;;;;;5012211;28;20058;-89
2024/02/03 09:42:04;;;;;;;0.17;0.17;;;;;;;;;;5014439;28;20077;-89
2024/02/03 09:44:31;;;;;;;0.20;0.20;;;;;;;;;;5001729;28;20066;-88
2024/02/03 09:46:59;;;;;;;0.10;0.10;;;;;;;;;;5020270;28;20050;-89
2024/02/03 09:49:26;;;;;;;0.20;0.20;;;;;;;;;;5003239;28;20061;-89
2024/02/03 09:51:53;;;;;;;0.20;0.20;;;;;;;;;;5001785;28;20046;-89
2024/02/03 09:54:24;;;;;;;0.10;0.10;;;;;;;;;;5000980;28;20042;-88
2024/02/03 09:56:51;;;;;;;0.20;0.20;;;;;;;;;;5004170;28;20054;-88
2024/02/03 09:59:19;;;;;;;0.35;0.35;;;;;;;;;;5004193;28;20046;-89
2024/02/03 10:01:46;;;;;;;0.60;0.20;;;;;;;;;;5020291;28;20483;-89
2024/02/03 10:04:14;;;;;;;0.35;0.10;;;;;;;;;;5004107;28;20050;-89
2024/02/03 10:06:44;;;;;;;0.30;0.30;;;;;;;;;;5001058;28;20057;-89
2024/02/03 10:09:23;;;;;;;0.10;0.10;;;;;;;;;;5001514;28;20062;-88
2024/02/03 10:11:51;;;;;;;0.15;0.15;;;;;;;;;;5011668;28;20431;-88
2024/02/03 10:14:18;;;;;;;0.17;0.17;;;;;;;;;;5003982;28;20093;-89
2024/02/03 10:16:46;;;;;;;0.10;0.10;;;;;;;;;;4996277;28;20046;-88
2024/02/03 10:19:13;;;;;;;0.13;0.13;;;;;;;;;;5015393;28;20085;-89
2024/02/03 10:21:41;;;;;;;0.20;0.20;;;;;;;;;;5007840;28;20506;-88
2024/02/03 10:24:09;;;;;;;0.95;0.10;;;;;;;;;;5007680;28;20050;-89
2024/02/03 10:26:36;;;;;;;0.63;0.20;;;;;;;;;;5011626;28;20057;-88
2024/02/03 10:29:03;;;;;;;0.10;0.10;;;;;;;;;;5009957;28;20057;-91
2024/02/03 10:31:30;;;;;;;0.45;0.20;;;;;;;;;;5023798;28;20069;-89
2024/02/03 10:34:04;;;;;;;0.20;0.10;;;;;;;;;;5007362;28;20066;-88
2024/02/03 10:36:32;;;;;;;0.10;0.10;;;;;;;;;;5005769;28;20056;-89
2024/02/03 10:38:59;;;;;;;1.08;0.10;;;;;;;;;;5004724;28;20099;-88
2024/02/03 10:41:31;;;;;;;0.15;0.15;;;;;;;;;;5009617;28;20054;-88
2024/02/03 10:44:03;;;;;;;0.20;0.20;;;;;;;;;;5004452;28;20047;-89
2024/02/03 10:46:31;;;;;;;0.10;0.10;;;;;;;;;;5003897;28;20109;-90
2024/02/03 10:49:00;;;;;;;0.20;0.20;;;;;;;;;;5009159;28;20054;-89
2024/02/03 10:51:29;;;;;;;0.50;0.30;;;;;;;;;;5014321;28;20054;-91
2024/02/03 10:54:01;;;;;;;0.30;0.20;;;;;;;;;;5039521;28;20057;-90
2024/02/03 10:56:30;;;;;;;0.90;0.25;;;;;;;;;;5006042;28;20049;-89
2024/02/03 10:58:57;;;;;;;0.30;0.30;;;;;;;;;;5003771;28;20109;-88
2024/02/03 11:01:33;;;;;;;1.20;0.20;;;;;;;;;;5004586;28;20050;-88
2024/02/03 11:04:04;;;;;;;0.52;0.30;;;;;;;;;;5006792;28;20049;-88
2024/02/03 11:06:32;;;;;;;0.20;0.20;;;;;;;;;;5005146;28;20058;-87
2024/02/03 11:09:12;;;;;;;0.35;0.35;;;;;;;;;;5002915;28;20042;-88
2024/02/03 11:11:47;;;;;;;0.50;0.50;;;;;;;;;;5005967;28;20058;-90
2024/02/03 11:14:15;;;;;;;0.20;0.20;;;;;;;;;;5006731;28;20069;-88
2024/02/03 11:16:44;;;;;;;0.43;0.30;;;;;;;;;;5022857;28;20092;-90
2024/02/03 11:19:12;;;;;;;1.30;0.40;;;;;;;;;;5023187;28;20068;-89
2024/02/03 11:21:43;;;;;;;0.35;0.35;;;;;;;;;;5003168;28;20133;-90
2024/02/03 11:24:11;;;;;;;0.38;0.30;;;;;;;;;;5003450;28;20054;-88
2024/02/03 11:26:38;;;;;;;0.30;0.30;;;;;;;;;;5005304;28;20046;-89
2024/02/03 11:29:06;;;;;;;1.33;0.20;;;;;;;;;;5006378;28;20487;-89
2024/02/03 11:31:33;;;;;;;0.43;0.38;;;;;;;;;;5004448;28;20487;-89
2024/02/03 11:34:00;;;;;;;0.82;0.40;;;;;;;;;;5008335;28;20050;-90
2024/02/03 11:36:29;;;;;;;0.20;0.20;;;;;;;;;;5024510;28;20483;-89
2024/02/03 11:38:56;;;;;;;0.20;0.20;;;;;;;;;;5009407;28;20053;-88
2024/02/03 11:41:24;;;;;;;0.40;0.30;;;;;;;;;;5016055;28;20099;-88
2024/02/03 11:43:51;;;;;;;0.30;0.30;;;;;;;;;;5005657;28;20112;-89
2024/02/03 11:46:18;;;;;;;1.85;0.30;;;;;;;;;;5013841;28;20081;-89
2024/02/03 11:48:46;;;;;;;0.20;0.20;;;;;;;;;;5025645;28;20081;-88
2024/02/03 11:51:15;;;;;;;0.47;0.40;;;;;;;;;;5009431;28;20053;-89
2024/02/03 11:53:43;;;;;;;0.40;0.40;;;;;;;;;;5009397;28;20050;-90
2024/02/03 11:56:10;;;;;;;0.30;0.30;;;;;;;;;;5025365;28;20497;-89
2024/02/03 11:58:40;;;;;;;0.60;0.60;;;;;;;;;;5024170;28;20050;-89
2024/02/03 12:01:08;;;;;;;0.28;0.28;;;;;;;;;;5023089;28;20054;-89
2024/02/03 12:03:36;;;;;;;0.20;0.20;;;;;;;;;;5008540;28;20046;-89
2024/02/03 12:06:05;;;;;;;0.52;0.30;;;;;;;;;;5031835;28;20049;-87
2024/02/03 12:08:33;;;;;;;0.20;0.20;;;;;;;;;;5035632;28;20080;-88
2024/02/03 12:11:00;;;;;;;0.15;0.10;;;;;;;;;;5005527;28;20049;-88
2024/02/03 12:13:33;;;;;;;0.17;0.17;;;;;;;;;;5006010;28;20574;-89
2024/02/03 12:16:01;;;;;;;;;;;;;;;;;;5009339;28;20053;-88
2024/02/03 12:18:28;;;;;;;0.40;0.40;;;;;;;;;;5007937;28;19975;-88
2024/02/03 12:20:56;;;;;;;0.10;0.10;;;;;;;;;;5004382;28;20054;-88
2024/02/03 12:23:24;;;;;;;0.20;0.20;;;;;;;;;;5004118;28;20054;-89
2024/02/03 12:25:51;;;;;;;0.20;0.20;;;;;;;;;;5012150;28;20049;-89
2024/02/03 12:28:19;;;;;;;0.10;0.10;;;;;;;;;;5004430;28;20053;-89
2024/02/03 12:30:54;;;;;;;0.20;0.20;;;;;;;;;;5025123;28;20064;-88
2024/02/03 12:33:21;;;;;;;0.20;0.20;;;;;;;;;;5024527;28;20049;-88
2024/02/03 12:35:50;;;;;;;0.38;0.30;;;;;;;;;;5004986;28;20056;-88
2024/02/03 12:38:20;;;;;;;0.50;0.20;;;;;;;;;;5004998;28;20054;-89
2024/02/03 12:40:48;;;;;;;0.80;0.70;;;;;;;;;;5005289;28;20050;-89
2024/02/03 12:43:15;;;;;;;2.45;0.63;;;;;;;;;;5005017;28;20465;-88
2024/02/03 12:45:42;;;;;;;0.65;0.55;;;;;;;;;;5004953;28;20104;-88
2024/02/03 12:48:10;;;;;;;0.20;0.20;;;;;;;;;;5004903;28;20061;-88
2024/02/03 12:50:37;;;;;;;1.42;0.82;;;;;;;;;;5006059;28;20132;-88
2024/02/03 12:53:05;;;;;;;0.65;0.30;;;;;;;;;;5008047;28;20049;-88
2024/02/03 12:55:32;;;;;;;0.73;0.57;;;;;;;;;;5006649;28;20057;-88
2024/02/03 12:57:59;;;;;;;1.10;0.98;;;;;;;;;;5004721;28;20116;-88
2024/02/03 13:00:27;;;;;;;0.98;0.38;;;;;;;;;;5010528;28;20100;-88
2024/02/03 13:02:54;;;;;;;0.40;0.40;;;;;;;;;;5004549;28;20581;-91
2024/02/03 13:05:22;;;;;;;0.63;0.60;;;;;;;;;;5001634;28;20046;-88
2024/02/03 13:07:51;;;;;;;0.30;0.30;;;;;;;;;;4997421;28;20152;-88
2024/02/03 13:10:19;;;;;;;0.40;0.38;;;;;;;;;;5016940;28;20099;-88
2024/02/03 13:12:46;;;;;;;1.60;0.40;;;;;;;;;;5004541;28;20498;-89
2024/02/03 13:15:15;;;;;;;1.15;0.40;;;;;;;;;;5004640;28;20510;-89
2024/02/03 13:17:42;;;;;;;0.38;0.30;;;;;;;;;;5007438;28;20049;-88
2024/02/03 13:20:10;;;;;;;0.45;0.30;;;;;;;;;;5014101;28;20045;-88
2024/02/03 13:22:37;;;;;;;0.75;0.30;;;;;;;;;;5016842;28;20088;-88
2024/02/03 13:25:05;;;;;;;0.60;0.20;;;;;;;;;;5004590;28;20050;-89
2024/02/03 13:27:33;;;;;;;0.30;0.30;;;;;;;;;;5006055;28;20050;-89
2024/02/03 13:30:00;;;;;;;0.20;0.20;;;;;;;;;;5024878;28;20053;-89
2024/02/03 13:32:27;;;;;;;1.00;0.65;;;;;;;;;;5006133;28;20053;-89
2024/02/03 13:34:55;;;;;;;0.30;0.30;;;;;;;;;;5004077;28;20164;-90
2024/02/03 13:37:22;;;;;;;0.20;0.20;;;;;;;;;;5004455;28;20133;-89
2024/02/03 13:39:50;;;;;;;0.80;0.80;;;;;;;;;;5024986;28;20077;-90
2024/02/03 13:42:17;;;;;;;0.30;0.30;;;;;;;;;;5024871;28;20046;-89
2024/02/03 13:44:44;;;;;;;0.40;0.40;;;;;;;;;;5005926;28;20461;-90
2024/02/03 13:47:12;;;;;;;0.30;0.30;;;;;;;;;;5008196;28;20062;-89
2024/02/03 13:49:39;;;;;;;0.50;0.40;;;;;;;;;;5010741;28;20046;-89
2024/02/03 13:52:08;;;;;;;0.40;0.40;;;;;;;;;;5028966;28;20076;-90
2024/02/03 13:54:35;;;;;;;1.42;0.30;;;;;;;;;;5026204;28;20049;-89
2024/02/03 13:57:03;;;;;;;0.20;0.20;;;;;;;;;;5008338;28;20060;-90
2024/02/03 13:59:30;;;;;;;0.52;0.30;;;;;;;;;;5018630;28;20053;-88
2024/02/03 14:02:00;;;;;;;1.75;0.57;;;;;;;;;;5023375;28;20081;-89
2024/02/03 14:04:27;;;;;;;5.35;1.08;;;;;;;;;;5016404;28;20473;-90
2024/02/03 14:06:55;;;;;;;0.82;0.70;;;;;;;;;;5011461;28;20053;-90
2024/02/03 14:09:23;;;;;;;0.30;0.30;;;;;;;;;;5011365;28;20060;-88
2024/02/03 14:11:50;;;;;;;0.65;0.38;;;;;;;;;;5027544;28;20061;-89
2024/02/03 14:14:21;;;;;;;0.60;0.40;;;;;;;;;;5011601;28;20107;-89
2024/02/03 14:16:49;;;;;;;0.20;0.20;;;;;;;;;;5008053;28;20049;-89
2024/02/03 14:19:17;;;;;;;0.77;0.77;;;;;;;;;;5015560;28;20052;-89
2024/02/03 14:21:45;;;;;;;0.30;0.30;;;;;;;;;;5024738;28;20045;-89
2024/02/03 14:24:13;;;;;;;0.55;0.38;;;;;;;;;;5007868;28;20056;-89
2024/02/03 14:26:40;;;;;;;0.50;0.40;;;;;;;;;;5010551;28;20104;-89
2024/02/03 14:29:08;;;;;;;0.30;0.30;;;;;;;;;;5011127;28;20119;-89
2024/02/03 14:31:35;;;;;;;0.35;0.28;;;;;;;;;;5037034;28;20136;-90
2024/02/03 14:34:02;;;;;;;0.30;0.30;;;;;;;;;;5014816;28;20108;-90
2024/02/03 14:36:31;;;;;;;0.50;0.38;;;;;;;;;;5018724;28;20096;-88
2024/02/03 14:38:58;;;;;;;0.28;0.28;;;;;;;;;;5007377;28;20054;-89
2024/02/03 14:41:26;;;;;;;0.20;0.20;;;;;;;;;;5008157;28;20092;-86
2024/02/03 14:43:53;;;;;;;0.25;0.25;;;;;;;;;;5031714;28;20050;-87
2024/02/03 14:46:20;;;;;;;0.40;0.40;;;;;;;;;;5007231;28;20045;-88